Terminal Aerodrome Forecast
Issued by NWS Charleston, WV

Current Version | Previous Version | Graphics & Text | Print | Product List | Glossary On
Versions: 1 2 3 4 5 6 7 8 9 10 11 12 13 14 15 16 17 18 19 20 21 22
000
FTUS41 KRLX 162300
TAFBKW
TAF
KBKW 162333Z 1700/1724 16012G16KT P6SM BKN018
      TEMPO 1700/1704 SCT020 BKN045
     FM170600 17008KT P6SM BKN030
     FM171200 23004KT 6SM BR BKN026
     FM171400 25005KT 5SM -SHRA BR OVC015
     FM171800 30005KT 6SM HZ BKN015
     FM172100 31005KT P6SM SCT020=

USA.gov is the U.S. government's official web portal to all federal, state and local government web resources and services.